Time;durP1;ratioP1;P1;durP2;ratioP2;P2;SDS_P1;SDS_P2;PMS_P1;PMS_P2;Temp;Humidity;BMP_temperature;BMP_pressure;BME280_temperature;BME280_humidity;BME280_pressure;Samples;Min_cycle;Max_cycle;Signal;HPM_P1;HPM_P2
2021/04/19 00:00:08;;;;;;;14.70;7.12;;;6.50;99.90;;;;;;1987894;72;21081;-73
2021/04/19 00:02:33;;;;;;;10.68;6.72;;;6.60;99.90;;;;;;1987620;72;21469;-73
2021/04/19 00:05:00;;;;;;;13.50;6.37;;;6.50;99.90;;;;;;1987850;71;21054;-74
2021/04/19 00:07:26;;;;;;;11.28;6.33;;;6.40;99.90;;;;;;1987835;72;21069;-74
2021/04/19 00:09:52;;;;;;;11.45;6.72;;;6.40;99.90;;;;;;1987836;72;21077;-73
2021/04/19 00:12:18;;;;;;;12.30;7.03;;;6.30;99.90;;;;;;1987855;71;21198;-73
2021/04/19 00:14:44;;;;;;;14.50;6.17;;;6.30;99.90;;;;;;1987837;72;21070;-74
2021/04/19 00:17:11;;;;;;;15.65;6.47;;;6.30;99.90;;;;;;1987866;71;21058;-74
2021/04/19 00:19:39;;;;;;;12.80;6.83;;;6.30;99.90;;;;;;1987954;72;21077;-73
2021/04/19 00:22:05;;;;;;;13.60;6.72;;;6.30;99.90;;;;;;1987756;71;21061;-73
2021/04/19 00:24:31;;;;;;;10.05;6.05;;;6.40;99.90;;;;;;1987863;72;21074;-73
2021/04/19 00:26:57;;;;;;;9.60;6.05;;;6.40;99.90;;;;;;1987851;72;21066;-74
2021/04/19 00:29:23;;;;;;;12.35;6.25;;;6.40;99.90;;;;;;1987797;72;21082;-73
2021/04/19 00:31:49;;;;;;;12.47;6.45;;;6.40;99.90;;;;;;1987934;72;21066;-73
2021/04/19 00:34:15;;;;;;;12.47;6.70;;;6.30;99.90;;;;;;1987717;72;21146;-73
2021/04/19 00:36:41;;;;;;;10.90;6.28;;;6.30;99.90;;;;;;1987920;72;21073;-73
2021/04/19 00:39:07;;;;;;;13.25;6.47;;;6.30;99.90;;;;;;1987699;71;21088;-73
2021/04/19 00:41:33;;;;;;;14.58;6.78;;;6.30;99.90;;;;;;1987917;72;21058;-74
2021/04/19 00:44:00;;;;;;;12.58;6.97;;;6.30;99.90;;;;;;1987695;72;21524;-72
2021/04/19 00:46:26;;;;;;;9.90;6.00;;;6.10;99.90;;;;;;1987721;72;21493;-73
2021/04/19 00:48:52;;;;;;;9.85;5.90;;;6.10;99.90;;;;;;1987840;72;21586;-72
2021/04/19 00:51:18;;;;;;;11.50;5.95;;;6.20;99.90;;;;;;1987711;72;21212;-72
2021/04/19 00:53:44;;;;;;;11.93;6.45;;;6.20;99.90;;;;;;1987908;71;21066;-72
2021/04/19 00:56:10;;;;;;;11.85;5.97;;;6.10;99.90;;;;;;1987670;72;21112;-72
2021/04/19 00:58:36;;;;;;;12.40;6.47;;;6.10;99.90;;;;;;1987998;72;21049;-72
2021/04/19 01:01:03;;;;;;;17.77;7.60;;;6.10;99.90;;;;;;1988000;72;21046;-73
2021/04/19 01:03:29;;;;;;;10.08;5.67;;;6.00;99.90;;;;;;1987958;72;21122;-72
2021/04/19 01:05:55;;;;;;;9.88;5.60;;;5.90;99.90;;;;;;1987879;72;21014;-72
2021/04/19 01:08:21;;;;;;;10.03;5.62;;;5.90;99.90;;;;;;1987746;72;21069;-71
2021/04/19 01:10:47;;;;;;;12.98;6.28;;;5.90;99.90;;;;;;1987750;72;21053;-72
2021/04/19 01:13:13;;;;;;;10.32;5.83;;;5.80;99.90;;;;;;1987805;72;21536;-72
2021/04/19 01:15:39;;;;;;;10.15;7.45;;;5.80;99.90;;;;;;1987746;72;21516;-72
2021/04/19 01:18:05;;;;;;;11.38;6.37;;;5.70;99.90;;;;;;1987992;72;21514;-71
2021/04/19 01:20:32;;;;;;;12.58;5.75;;;5.70;99.90;;;;;;1987889;72;21524;-71
2021/04/19 01:22:58;;;;;;;12.93;5.78;;;5.60;99.90;;;;;;1987807;72;21117;-71
2021/04/19 01:25:24;;;;;;;10.88;6.12;;;5.70;99.90;;;;;;1987905;72;21147;-72
2021/04/19 01:27:50;;;;;;;9.83;5.75;;;5.70;99.90;;;;;;1987759;72;21069;-72
2021/04/19 01:30:17;;;;;;;12.98;6.67;;;5.70;99.90;;;;;;1987718;72;21577;-72
2021/04/19 01:32:43;;;;;;;9.95;5.95;;;5.60;99.90;;;;;;1990132;71;21125;-73
2021/04/19 01:35:09;;;;;;;11.45;6.60;;;5.60;99.90;;;;;;1987804;72;21065;-72
2021/04/19 01:37:35;;;;;;;12.73;6.40;;;5.60;99.90;;;;;;1989026;71;21085;-72
2021/04/19 01:40:01;;;;;;;13.50;6.62;;;5.60;99.90;;;;;;1987889;72;21078;-72
2021/04/19 01:42:27;;;;;;;10.48;6.70;;;5.60;99.90;;;;;;1987950;71;21081;-72
2021/04/19 01:44:53;;;;;;;15.60;6.58;;;5.70;99.90;;;;;;1987956;71;21081;-71
2021/04/19 01:47:20;;;;;;;12.10;7.30;;;5.70;99.90;;;;;;1987926;72;21073;-72
2021/04/19 01:49:46;;;;;;;12.37;6.75;;;5.70;99.90;;;;;;1987894;71;21061;-72
2021/04/19 01:52:12;;;;;;;9.95;5.80;;;5.70;99.90;;;;;;1988000;72;21073;-72
2021/04/19 01:54:38;;;;;;;10.53;5.83;;;5.70;99.90;;;;;;1988055;72;21146;-72
2021/04/19 01:57:04;;;;;;;12.28;6.10;;;5.70;99.90;;;;;;1988039;71;21128;-72
2021/04/19 01:59:30;;;;;;;25.43;6.72;;;5.80;99.90;;;;;;1988029;72;21114;-71
2021/04/19 02:01:56;;;;;;;9.73;6.58;;;5.70;99.90;;;;;;1987885;72;21070;-72
2021/04/19 02:04:22;;;;;;;11.78;5.87;;;5.70;99.90;;;;;;1987914;72;21078;-72
2021/04/19 02:06:48;;;;;;;9.35;5.80;;;5.80;99.90;;;;;;1987924;72;21210;-72
2021/04/19 02:09:15;;;;;;;9.18;5.75;;;5.90;99.90;;;;;;1987994;72;21493;-72
2021/04/19 02:11:41;;;;;;;12.23;6.25;;;5.70;99.90;;;;;;1987829;72;21509;-72
2021/04/19 02:14:07;;;;;;;10.05;5.83;;;5.80;99.90;;;;;;1988012;72;21497;-73
2021/04/19 02:16:33;;;;;;;14.70;6.72;;;5.80;99.90;;;;;;1988015;72;21501;-72
2021/04/19 02:18:59;;;;;;;11.55;6.30;;;5.80;99.90;;;;;;1987971;72;21108;-72
2021/04/19 02:21:25;;;;;;;11.48;5.90;;;5.80;99.90;;;;;;1987805;72;21070;-72
2021/04/19 02:23:51;;;;;;;11.48;5.87;;;5.70;99.90;;;;;;1988001;72;21070;-72
2021/04/19 02:26:17;;;;;;;10.43;6.15;;;5.70;99.90;;;;;;1987811;72;21073;-72
2021/04/19 02:28:44;;;;;;;9.20;5.85;;;5.70;99.90;;;;;;1988024;72;21073;-72
2021/04/19 02:31:10;;;;;;;11.08;6.42;;;5.70;99.90;;;;;;1987854;71;21070;-72
2021/04/19 02:33:36;;;;;;;15.80;7.55;;;5.70;99.90;;;;;;1987946;72;21060;-72
2021/04/19 02:36:02;;;;;;;11.75;6.90;;;5.70;99.90;;;;;;1987825;72;21139;-72
2021/04/19 02:38:28;;;;;;;12.15;6.55;;;5.70;99.90;;;;;;1987952;72;21127;-72
2021/04/19 02:40:54;;;;;;;10.82;6.50;;;5.70;99.90;;;;;;1987922;72;21498;-72
2021/04/19 02:43:20;;;;;;;10.98;6.55;;;5.80;99.90;;;;;;1987812;72;21484;-72
2021/04/19 02:45:46;;;;;;;7.62;5.15;;;5.90;99.90;;;;;;1988015;72;21550;-72
2021/04/19 02:48:13;;;;;;;9.20;5.83;;;5.90;99.90;;;;;;1987760;72;21054;-72
2021/04/19 02:50:39;;;;;;;21.10;6.55;;;5.80;99.90;;;;;;1987966;71;21083;-72
2021/04/19 02:53:05;;;;;;;16.90;6.47;;;5.90;99.90;;;;;;1987811;71;21070;-73
2021/04/19 02:55:31;;;;;;;14.10;5.85;;;5.80;99.90;;;;;;1988033;72;21212;-72
2021/04/19 02:57:57;;;;;;;8.98;5.47;;;5.80;99.90;;;;;;1987927;71;21135;-72
2021/04/19 03:00:23;;;;;;;21.23;7.40;;;5.80;99.90;;;;;;1987903;71;21135;-73
2021/04/19 03:02:49;;;;;;;11.25;6.62;;;5.70;99.90;;;;;;1988012;72;21062;-72
2021/04/19 03:05:15;;;;;;;8.58;5.75;;;5.70;99.90;;;;;;1987940;71;21034;-72
2021/04/19 03:07:42;;;;;;;13.08;6.47;;;5.70;99.90;;;;;;1987899;71;21070;-72
2021/04/19 03:10:08;;;;;;;9.48;6.03;;;5.90;99.90;;;;;;1987980;72;21041;-73
2021/04/19 03:12:34;;;;;;;10.65;5.97;;;5.80;99.90;;;;;;1988006;72;21154;-72
2021/04/19 03:15:00;;;;;;;13.75;6.83;;;5.70;99.90;;;;;;1987900;72;21037;-72
2021/04/19 03:17:26;;;;;;;16.77;6.62;;;5.70;99.90;;;;;;1987861;72;21146;-72
2021/04/19 03:19:53;;;;;;;15.88;6.37;;;5.70;99.90;;;;;;1987898;72;21073;-73
2021/04/19 03:22:19;;;;;;;16.67;6.58;;;5.70;99.90;;;;;;1987953;72;21186;-73
2021/04/19 03:24:45;;;;;;;8.95;5.90;;;5.70;99.90;;;;;;1987904;71;21073;-72
2021/04/19 03:27:11;;;;;;;9.33;6.20;;;5.70;99.90;;;;;;1987915;72;21069;-72
2021/04/19 03:29:37;;;;;;;14.07;6.33;;;5.70;99.90;;;;;;1987995;71;21108;-72
2021/04/19 03:32:03;;;;;;;13.22;6.50;;;5.70;99.90;;;;;;1987900;71;21038;-72
2021/04/19 03:34:29;;;;;;;14.28;5.78;;;5.80;99.90;;;;;;1991487;71;21111;-72
2021/04/19 03:36:56;;;;;;;16.10;6.40;;;5.80;99.90;;;;;;1990706;72;21114;-72
2021/04/19 03:39:22;;;;;;;12.78;6.58;;;5.70;99.90;;;;;;1989017;71;21078;-72
2021/04/19 03:41:48;;;;;;;12.80;7.12;;;5.70;99.90;;;;;;1989013;71;21095;-72
2021/04/19 03:44:14;;;;;;;13.60;6.78;;;5.60;99.90;;;;;;1987777;72;21022;-72
2021/04/19 03:46:41;;;;;;;18.85;6.67;;;5.60;99.90;;;;;;1987833;72;21082;-72
2021/04/19 03:49:07;;;;;;;10.72;6.28;;;5.50;99.90;;;;;;1987751;71;21476;-72
2021/04/19 03:51:33;;;;;;;13.62;7.28;;;5.40;99.90;;;;;;1989024;71;21578;-72
2021/04/19 03:53:59;;;;;;;13.93;7.08;;;5.50;99.90;;;;;;1989037;72;21552;-75
2021/04/19 03:56:25;;;;;;;12.93;6.17;;;5.50;99.90;;;;;;1987759;72;21033;-75
2021/04/19 03:58:51;;;;;;;14.80;6.60;;;5.40;99.90;;;;;;1991616;71;21021;-74
2021/04/19 04:01:17;;;;;;;12.60;6.80;;;5.40;99.90;;;;;;1987781;72;21058;-75
2021/04/19 04:03:44;;;;;;;11.05;6.65;;;5.40;99.90;;;;;;1989223;71;21056;-74
2021/04/19 04:06:10;;;;;;;11.85;6.40;;;5.40;99.90;;;;;;1987879;72;21049;-75
2021/04/19 04:08:37;;;;;;;12.93;6.80;;;5.40;99.90;;;;;;1987962;72;21081;-75
2021/04/19 04:11:03;;;;;;;7.30;5.78;;;5.40;99.90;;;;;;1987755;72;21053;-75
2021/04/19 04:13:29;;;;;;;11.40;6.60;;;5.40;99.90;;;;;;1987967;71;21186;-75
2021/04/19 04:15:55;;;;;;;14.78;7.45;;;5.40;99.90;;;;;;1987761;72;21066;-75
2021/04/19 04:18:22;;;;;;;10.43;6.75;;;5.40;99.90;;;;;;1987973;71;21070;-75
2021/04/19 04:20:48;;;;;;;11.95;6.87;;;5.40;99.90;;;;;;1987758;72;21158;-75
2021/04/19 04:23:14;;;;;;;11.93;6.72;;;5.40;99.90;;;;;;1988192;72;21111;-75
2021/04/19 04:25:40;;;;;;;15.05;6.30;;;5.30;99.90;;;;;;1987753;72;21074;-75
2021/04/19 04:28:06;;;;;;;15.83;7.15;;;5.30;99.90;;;;;;1987955;72;21086;-75
2021/04/19 04:30:35;;;;;;;17.77;7.85;;;5.30;99.90;;;;;;1987733;72;21029;-75
2021/04/19 04:33:00;;;;;;;10.70;7.12;;;5.30;99.90;;;;;;1987889;71;21475;-75
2021/04/19 04:35:26;;;;;;;12.37;6.60;;;5.30;99.90;;;;;;1987745;72;21066;-75
2021/04/19 04:37:52;;;;;;;18.57;7.50;;;5.30;99.90;;;;;;1987955;72;21077;-75
2021/04/19 04:40:18;;;;;;;13.10;7.25;;;5.30;99.90;;;;;;1987712;72;21145;-75
2021/04/19 04:42:44;;;;;;;17.25;6.78;;;5.20;99.90;;;;;;1987918;72;21073;-75
2021/04/19 04:45:11;;;;;;;14.35;6.92;;;5.30;99.90;;;;;;1987707;72;21048;-75
2021/04/19 04:47:37;;;;;;;10.10;6.75;;;5.20;99.90;;;;;;1987970;72;21155;-75
2021/04/19 04:50:03;;;;;;;12.20;7.35;;;5.30;99.90;;;;;;1987705;72;21049;-75
2021/04/19 04:52:29;;;;;;;11.30;6.97;;;5.30;99.90;;;;;;1987803;72;21121;-75
2021/04/19 04:54:55;;;;;;;19.87;7.03;;;5.30;99.90;;;;;;1987881;72;21070;-77
2021/04/19 04:57:21;;;;;;;11.08;6.85;;;5.30;99.90;;;;;;1988013;72;21081;-78
2021/04/19 04:59:47;;;;;;;16.45;7.80;;;5.30;99.90;;;;;;1987684;72;21154;-78
2021/04/19 05:02:13;;;;;;;14.47;6.60;;;5.40;99.90;;;;;;1987747;72;21081;-77
2021/04/19 05:04:40;;;;;;;13.28;6.75;;;5.30;99.90;;;;;;1987786;71;21121;-78
2021/04/19 05:07:06;;;;;;;21.93;7.20;;;5.30;99.90;;;;;;1987816;72;21082;-79
2021/04/19 05:09:32;;;;;;;9.98;6.85;;;5.40;99.90;;;;;;1987685;72;21101;-78
2021/04/19 05:11:58;;;;;;;13.50;7.10;;;5.40;99.90;;;;;;1987796;72;21578;-78
2021/04/19 05:14:24;;;;;;;11.70;6.72;;;5.40;99.90;;;;;;1987840;72;21489;-79
2021/04/19 05:16:51;;;;;;;13.13;7.40;;;5.40;99.90;;;;;;1987711;71;21173;-81
2021/04/19 05:19:17;;;;;;;11.78;6.95;;;5.50;99.90;;;;;;1987832;72;21151;-81
2021/04/19 05:21:43;;;;;;;11.40;6.97;;;5.50;99.90;;;;;;1987671;72;21017;-82
2021/04/19 05:24:09;;;;;;;16.42;7.10;;;5.50;99.90;;;;;;1987780;72;21128;-80
2021/04/19 05:26:35;;;;;;;13.95;6.45;;;5.50;99.90;;;;;;1987817;72;21077;-82
2021/04/19 05:29:01;;;;;;;16.97;6.80;;;5.50;99.90;;;;;;1987778;72;21118;-81
2021/04/19 05:31:27;;;;;;;12.88;7.35;;;5.50;99.90;;;;;;1987716;72;21082;-81
2021/04/19 05:33:54;;;;;;;9.95;6.70;;;5.50;99.90;;;;;;1990117;72;21049;-81
2021/04/19 05:36:20;;;;;;;12.43;6.90;;;5.60;99.90;;;;;;1988468;72;21132;-82
2021/04/19 05:38:47;;;;;;;11.00;6.42;;;5.60;99.90;;;;;;1988291;72;21081;-80
2021/04/19 05:41:14;;;;;;;20.37;6.78;;;5.60;99.90;;;;;;1987847;72;21147;-80
2021/04/19 05:43:40;;;;;;;12.95;7.53;;;5.60;99.90;;;;;;1987742;72;21186;-80
2021/04/19 05:46:06;;;;;;;11.18;6.87;;;5.70;99.90;;;;;;1987597;72;21069;-79
2021/04/19 05:48:32;;;;;;;16.95;7.53;;;5.70;99.90;;;;;;1987671;72;21029;-81
2021/04/19 05:50:58;;;;;;;14.15;6.53;;;5.60;99.90;;;;;;1988915;71;21133;-79
2021/04/19 05:53:24;;;;;;;11.97;7.90;;;5.60;99.90;;;;;;1988196;72;21046;-79
2021/04/19 05:55:50;;;;;;;12.60;7.22;;;5.60;99.90;;;;;;1988392;72;21053;-79
2021/04/19 05:58:16;;;;;;;12.40;6.45;;;5.60;99.90;;;;;;1988747;72;21074;-78
2021/04/19 06:00:43;;;;;;;10.23;7.00;;;5.60;99.90;;;;;;1987918;72;21042;-78
2021/04/19 06:03:09;;;;;;;18.92;7.35;;;5.70;99.90;;;;;;1987589;72;21119;-78
2021/04/19 06:05:35;;;;;;;11.20;7.03;;;5.70;99.90;;;;;;1987755;72;21111;-78
2021/04/19 06:08:01;;;;;;;11.50;7.12;;;5.70;99.90;;;;;;1987659;72;21533;-77
2021/04/19 06:10:27;;;;;;;12.63;7.28;;;5.60;99.90;;;;;;1987740;72;21097;-77
2021/04/19 06:12:53;;;;;;;15.83;7.65;;;5.70;99.90;;;;;;1987939;71;21368;-77
2021/04/19 06:15:20;;;;;;;15.88;7.62;;;5.60;99.90;;;;;;1987526;72;21604;-77
2021/04/19 06:17:46;;;;;;;15.23;7.50;;;5.70;99.90;;;;;;1987762;72;21159;-80
2021/04/19 06:20:12;;;;;;;17.00;7.15;;;5.70;99.90;;;;;;1987929;72;21082;-78
2021/04/19 06:22:38;;;;;;;12.88;6.90;;;5.80;99.90;;;;;;1988071;72;21048;-79
2021/04/19 06:25:04;;;;;;;17.77;7.33;;;5.80;99.90;;;;;;1987877;71;21154;-78
2021/04/19 06:27:31;;;;;;;24.57;7.70;;;5.70;99.90;;;;;;1987865;71;21081;-79
2021/04/19 06:29:57;;;;;;;15.85;8.30;;;5.80;99.90;;;;;;1987803;72;21053;-80
2021/04/19 06:32:23;;;;;;;11.48;6.83;;;5.70;99.90;;;;;;1987804;72;21086;-79
2021/04/19 06:34:49;;;;;;;10.78;7.62;;;5.80;99.90;;;;;;1987837;71;21171;-79
2021/04/19 06:37:17;;;;;;;10.25;6.95;;;5.90;99.90;;;;;;1987951;72;21466;-79
2021/04/19 06:39:43;;;;;;;14.45;6.97;;;5.90;99.90;;;;;;1987622;71;21147;-80
2021/04/19 06:42:09;;;;;;;9.10;6.60;;;6.10;99.90;;;;;;1987867;72;21140;-80
2021/04/19 06:44:35;;;;;;;12.45;7.33;;;6.00;99.90;;;;;;1987638;72;21188;-80
2021/04/19 06:47:01;;;;;;;17.87;7.87;;;6.00;99.90;;;;;;1987894;72;21134;-80
2021/04/19 06:49:27;;;;;;;12.13;7.30;;;5.90;99.90;;;;;;1987754;71;21144;-79
2021/04/19 06:51:53;;;;;;;13.22;7.42;;;5.80;99.90;;;;;;1987805;72;21093;-79
2021/04/19 06:54:20;;;;;;;14.33;8.03;;;5.80;99.90;;;;;;1987772;72;21669;-79
2021/04/19 06:56:46;;;;;;;13.72;7.60;;;6.00;99.90;;;;;;1987787;72;21472;-79
2021/04/19 06:59:13;;;;;;;19.05;7.42;;;5.90;99.90;;;;;;1987773;72;21081;-80
2021/04/19 07:01:39;;;;;;;16.40;8.20;;;5.90;99.90;;;;;;1987777;72;21124;-79
2021/04/19 07:04:06;;;;;;;16.10;7.05;;;5.80;99.90;;;;;;1987826;72;21073;-78
2021/04/19 07:06:32;;;;;;;20.77;8.53;;;5.80;99.90;;;;;;1987783;72;21093;-77
2021/04/19 07:08:58;;;;;;;17.20;8.15;;;5.60;99.90;;;;;;1987824;72;21086;-77
2021/04/19 07:11:25;;;;;;;11.97;7.62;;;5.60;99.90;;;;;;1987873;72;21538;-76
2021/04/19 07:13:52;;;;;;;24.92;8.28;;;5.50;99.90;;;;;;1988091;72;21089;-77
2021/04/19 07:16:18;;;;;;;14.13;7.78;;;5.60;99.90;;;;;;1988164;71;21142;-77
2021/04/19 07:18:44;;;;;;;16.57;8.05;;;5.70;99.90;;;;;;1987954;72;21081;-77
2021/04/19 07:21:10;;;;;;;12.80;7.92;;;5.70;99.90;;;;;;1987869;72;21560;-77
2021/04/19 07:23:41;;;;;;;26.55;8.35;;;5.60;99.90;;;;;;1987809;71;21529;-78
2021/04/19 07:26:07;;;;;;;11.70;7.85;;;5.70;99.90;;;;;;1987729;71;21070;-77
2021/04/19 07:28:36;;;;;;;18.30;8.53;;;5.70;99.90;;;;;;1987785;72;21077;-76
2021/04/19 07:31:01;;;;;;;10.85;7.05;;;5.70;99.90;;;;;;1987692;71;21167;-77
2021/04/19 07:33:27;;;;;;;14.80;7.78;;;5.90;99.90;;;;;;1987876;72;21228;-77
2021/04/19 07:35:53;;;;;;;13.13;7.53;;;5.80;99.90;;;;;;1987760;72;21097;-77
2021/04/19 07:38:19;;;;;;;11.73;7.83;;;5.90;99.90;;;;;;1988049;72;21627;-77
2021/04/19 07:40:45;;;;;;;11.78;7.65;;;6.00;99.90;;;;;;1987824;72;21481;-77
2021/04/19 07:43:12;;;;;;;23.73;7.85;;;6.00;99.90;;;;;;1987936;72;21570;-77
2021/04/19 07:45:38;;;;;;;14.13;8.50;;;6.10;99.90;;;;;;1987902;72;21073;-78
2021/04/19 07:48:04;;;;;;;14.85;8.03;;;6.10;99.90;;;;;;1987915;71;21147;-79
2021/04/19 07:50:30;;;;;;;11.90;7.28;;;6.30;99.90;;;;;;1988015;72;21077;-78
2021/04/19 07:52:56;;;;;;;16.52;8.00;;;6.30;99.90;;;;;;1988114;72;21107;-78
2021/04/19 07:55:22;;;;;;;17.73;7.87;;;6.30;99.90;;;;;;1987877;72;21566;-78
2021/04/19 07:57:48;;;;;;;14.15;7.72;;;6.50;99.90;;;;;;1987721;71;21542;-78
2021/04/19 08:00:15;;;;;;;11.05;7.17;;;6.30;99.90;;;;;;1987701;72;21483;-82
2021/04/19 08:02:41;;;;;;;13.62;7.65;;;6.30;99.90;;;;;;1987901;72;21591;-76
2021/04/19 08:05:07;;;;;;;12.85;6.67;;;6.20;99.90;;;;;;1987661;72;21041;-74
2021/04/19 08:07:33;;;;;;;11.30;7.03;;;6.40;99.90;;;;;;1987926;72;21142;-74
2021/04/19 08:09:59;;;;;;;13.45;7.05;;;6.50;99.90;;;;;;1987779;72;21135;-74
2021/04/19 08:12:28;;;;;;;15.65;7.58;;;6.80;99.90;;;;;;1987653;72;21549;-75
2021/04/19 08:14:53;;;;;;;15.05;7.85;;;6.90;99.90;;;;;;1986942;72;21066;-74
2021/04/19 08:17:19;;;;;;;14.33;7.15;;;7.00;99.90;;;;;;1987647;72;21153;-74
2021/04/19 08:19:45;;;;;;;11.55;6.87;;;6.80;99.90;;;;;;1987610;72;21553;-74
2021/04/19 08:22:12;;;;;;;14.43;7.60;;;6.80;99.90;;;;;;1987789;71;21152;-74
2021/04/19 08:24:38;;;;;;;15.83;7.53;;;6.80;99.90;;;;;;1987636;72;21090;-75
2021/04/19 08:27:04;;;;;;;12.78;7.50;;;6.80;99.90;;;;;;1987789;72;21069;-75
2021/04/19 08:29:30;;;;;;;14.60;7.37;;;6.70;99.90;;;;;;1987712;72;21128;-75
2021/04/19 08:31:56;;;;;;;12.07;7.55;;;6.60;99.90;;;;;;1987837;72;21052;-74
2021/04/19 08:34:22;;;;;;;13.40;7.30;;;6.60;99.90;;;;;;1987779;71;21089;-75
2021/04/19 08:36:49;;;;;;;11.05;7.47;;;6.70;99.90;;;;;;1990270;71;21111;-74
2021/04/19 08:39:15;;;;;;;13.05;7.17;;;6.70;99.90;;;;;;1987843;72;21070;-74
2021/04/19 08:41:41;;;;;;;19.00;7.60;;;6.70;99.90;;;;;;1987749;71;21167;-73
2021/04/19 08:44:07;;;;;;;12.45;7.75;;;6.70;99.90;;;;;;1987700;72;21586;-73
2021/04/19 08:46:33;;;;;;;15.90;8.68;;;6.80;99.90;;;;;;1987865;72;21520;-73
2021/04/19 08:48:59;;;;;;;11.70;7.45;;;7.00;99.90;;;;;;1987777;72;21132;-73
2021/04/19 08:51:26;;;;;;;11.50;7.62;;;7.10;99.90;;;;;;1987749;71;21085;-74
2021/04/19 08:53:52;;;;;;;9.53;7.37;;;7.10;99.90;;;;;;1987743;71;21042;-74
2021/04/19 08:56:18;;;;;;;16.20;8.18;;;7.00;99.90;;;;;;1987688;72;21074;-74
2021/04/19 08:58:44;;;;;;;16.42;8.28;;;7.10;99.90;;;;;;1987780;72;21074;-74
2021/04/19 09:01:10;;;;;;;16.00;8.10;;;7.10;99.90;;;;;;1987823;72;21519;-74
2021/04/19 09:03:36;;;;;;;11.15;7.97;;;7.00;99.90;;;;;;1987755;72;21529;-74
2021/04/19 09:06:02;;;;;;;12.98;7.70;;;6.90;99.90;;;;;;1987754;72;21070;-74
2021/04/19 09:08:33;;;;;;;16.65;8.48;;;7.00;99.90;;;;;;1987783;72;21069;-74
2021/04/19 09:10:56;;;;;;;16.30;7.97;;;7.20;99.90;;;;;;1987026;72;21105;-74
2021/04/19 09:13:22;;;;;;;14.07;7.80;;;7.20;99.90;;;;;;1987733;72;21513;-74
2021/04/19 09:15:48;;;;;;;15.13;8.98;;;7.30;99.90;;;;;;1987718;72;21477;-74
2021/04/19 09:18:15;;;;;;;16.52;8.25;;;7.40;99.90;;;;;;1987615;72;21594;-74
2021/04/19 09:20:41;;;;;;;15.70;8.25;;;7.70;99.90;;;;;;1987687;72;21484;-76
2021/04/19 09:23:07;;;;;;;14.98;8.08;;;7.70;99.90;;;;;;1987737;72;21167;-75
2021/04/19 09:25:33;;;;;;;14.40;8.58;;;7.80;99.90;;;;;;1988024;72;21074;-74
2021/04/19 09:27:59;;;;;;;15.50;8.60;;;7.80;99.90;;;;;;1987675;72;21066;-75
2021/04/19 09:30:29;;;;;;;18.67;8.28;;;7.80;99.90;;;;;;1987633;71;21028;-75
2021/04/19 09:32:55;;;;;;;18.30;10.25;;;7.70;99.90;;;;;;1987869;72;21069;-75
2021/04/19 09:35:23;;;;;;;22.85;9.40;;;7.90;99.90;;;;;;1987865;72;21126;-73
2021/04/19 09:37:49;;;;;;;17.40;9.25;;;8.00;99.90;;;;;;1987778;72;21198;-76
2021/04/19 09:40:16;;;;;;;18.60;9.50;;;8.10;99.90;;;;;;1987838;71;21069;-73
2021/04/19 09:42:42;;;;;;;15.85;8.85;;;8.00;99.90;;;;;;1987936;72;21152;-73
2021/04/19 09:45:08;;;;;;;16.95;8.90;;;8.10;99.90;;;;;;1987832;72;21078;-74
2021/04/19 09:47:34;;;;;;;13.65;8.78;;;8.40;99.90;;;;;;1987759;72;21046;-74
2021/04/19 09:50:00;;;;;;;15.00;8.35;;;8.50;99.90;;;;;;1988017;72;21194;-75
2021/04/19 09:52:26;;;;;;;20.10;9.10;;;8.70;99.90;;;;;;1987724;72;21018;-74
2021/04/19 09:54:52;;;;;;;17.02;9.20;;;8.20;99.90;;;;;;1988066;71;21514;-76
2021/04/19 09:57:18;;;;;;;15.38;8.23;;;8.50;99.90;;;;;;1987996;72;21107;-76
2021/04/19 09:59:45;;;;;;;20.70;8.83;;;8.70;99.90;;;;;;1988068;72;21082;-76
2021/04/19 10:02:11;;;;;;;20.85;8.83;;;8.90;99.90;;;;;;1987837;72;21085;-74
2021/04/19 10:04:37;;;;;;;13.28;7.50;;;9.20;99.90;;;;;;1987775;72;21517;-76
2021/04/19 10:07:03;;;;;;;20.23;7.95;;;9.30;99.90;;;;;;1987789;72;21480;-77
2021/04/19 10:09:29;;;;;;;16.70;7.83;;;9.40;99.90;;;;;;1987977;72;21509;-77
2021/04/19 10:11:56;;;;;;;16.97;8.55;;;9.40;99.90;;;;;;1989821;72;21104;-75
2021/04/19 10:14:25;;;;;;;15.25;8.55;;;9.10;99.90;;;;;;1989451;72;21061;-75
2021/04/19 10:16:51;;;;;;;16.30;8.68;;;9.50;99.90;;;;;;1988313;71;21531;-76
2021/04/19 10:19:17;;;;;;;14.90;8.18;;;9.90;99.90;;;;;;1988107;72;21436;-74
2021/04/19 10:21:43;;;;;;;20.75;8.98;;;10.20;99.90;;;;;;1987889;71;21513;-74
2021/04/19 10:24:10;;;;;;;15.10;7.92;;;10.10;99.90;;;;;;1987975;72;21555;-75
2021/04/19 10:26:37;;;;;;;22.60;8.63;;;10.30;99.90;;;;;;1987957;71;21505;-76
2021/04/19 10:29:03;;;;;;;20.35;8.45;;;10.40;99.90;;;;;;1987961;72;21101;-75
2021/04/19 10:31:29;;;;;;;16.25;8.40;;;10.50;99.90;;;;;;1987872;72;21133;-78
2021/04/19 10:33:56;;;;;;;14.85;8.68;;;10.10;99.90;;;;;;1987903;72;21077;-75
2021/04/19 10:36:22;;;;;;;19.23;8.33;;;9.70;99.90;;;;;;1987827;71;21081;-75
2021/04/19 10:38:48;;;;;;;15.65;6.75;;;9.80;99.90;;;;;;1987882;72;21070;-75
2021/04/19 10:41:14;;;;;;;14.35;7.92;;;10.20;99.90;;;;;;1988006;71;21085;-75
2021/04/19 10:43:40;;;;;;;15.28;7.90;;;10.50;99.90;;;;;;1987871;72;21528;-76
2021/04/19 10:46:06;;;;;;;14.75;8.38;;;10.60;99.90;;;;;;1987755;71;21522;-75
2021/04/19 10:48:35;;;;;;;11.73;6.58;;;10.70;99.90;;;;;;1988039;72;21575;-75
2021/04/19 10:51:02;;;;;;;15.30;7.65;;;10.30;99.90;;;;;;1989238;72;21489;-74
2021/04/19 10:53:28;;;;;;;14.95;7.65;;;10.00;99.90;;;;;;1987868;71;21077;-75
2021/04/19 10:55:54;;;;;;;17.55;8.10;;;9.70;99.90;;;;;;1987932;72;21147;-74
2021/04/19 10:58:20;;;;;;;15.20;8.00;;;9.70;99.90;;;;;;1987808;72;21108;-74
2021/04/19 11:00:46;;;;;;;17.87;7.83;;;9.90;99.90;;;;;;1987833;72;21077;-74
2021/04/19 11:03:12;;;;;;;15.03;8.25;;;10.10;99.90;;;;;;1987656;72;21150;-74
2021/04/19 11:05:38;;;;;;;19.55;8.45;;;10.30;99.90;;;;;;1990347;71;21163;-74
2021/04/19 11:08:04;;;;;;;18.05;9.03;;;10.50;99.90;;;;;;1987625;72;21021;-74
2021/04/19 11:10:31;;;;;;;19.07;8.83;;;10.40;99.90;;;;;;1987961;72;21197;-74
2021/04/19 11:12:57;;;;;;;17.23;9.43;;;10.10;99.90;;;;;;1987723;71;21150;-74
2021/04/19 11:15:23;;;;;;;17.10;8.80;;;10.20;99.90;;;;;;1988106;72;21018;-74
2021/04/19 11:17:49;;;;;;;16.87;9.08;;;10.30;99.90;;;;;;1987970;72;21171;-74
2021/04/19 11:20:15;;;;;;;15.20;8.20;;;10.30;99.90;;;;;;1987969;72;21073;-74
2021/04/19 11:22:41;;;;;;;25.40;9.90;;;10.50;99.90;;;;;;1988065;72;21119;-75
2021/04/19 11:25:09;;;;;;;16.48;8.10;;;10.40;99.90;;;;;;1987935;72;21151;-73
2021/04/19 11:27:35;;;;;;;20.85;8.70;;;10.40;99.90;;;;;;1987973;72;21073;-75
2021/04/19 11:30:01;;;;;;;18.23;8.78;;;10.50;99.90;;;;;;1987974;72;21086;-75
2021/04/19 11:32:27;;;;;;;16.10;8.13;;;10.40;99.90;;;;;;1987745;72;21036;-76
2021/04/19 11:34:56;;;;;;;15.28;8.45;;;10.50;99.90;;;;;;1987889;72;21065;-75
2021/04/19 11:37:23;;;;;;;17.12;8.48;;;10.60;99.90;;;;;;1987981;72;21070;-76
2021/04/19 11:39:51;;;;;;;21.97;9.13;;;10.50;99.90;;;;;;1987788;72;21062;-75
2021/04/19 11:42:16;;;;;;;18.77;8.98;;;10.30;99.90;;;;;;1988033;71;21458;-76
2021/04/19 11:44:43;;;;;;;15.05;8.40;;;10.20;99.90;;;;;;1987877;71;21508;-75
2021/04/19 11:47:09;;;;;;;16.20;7.92;;;10.50;99.90;;;;;;1987973;71;21501;-75
2021/04/19 11:49:35;;;;;;;17.60;8.50;;;10.50;99.90;;;;;;1987861;71;21607;-75
2021/04/19 11:52:01;;;;;;;15.23;7.67;;;10.40;99.90;;;;;;1987866;72;21597;-75
2021/04/19 11:54:27;;;;;;;16.95;7.62;;;10.60;99.90;;;;;;1987813;72;21513;-75
2021/04/19 11:56:53;;;;;;;15.40;8.08;;;10.60;99.90;;;;;;1987844;72;21139;-75
2021/04/19 11:59:19;;;;;;;20.68;9.18;;;10.70;99.90;;;;;;1988078;72;21037;-75
2021/04/19 12:01:45;;;;;;;14.30;8.43;;;10.50;99.90;;;;;;1987886;71;21066;-75
2021/04/19 12:04:14;;;;;;;18.02;8.00;;;10.50;99.90;;;;;;1987903;72;21065;-75
2021/04/19 12:06:39;;;;;;;17.62;8.63;;;10.70;99.90;;;;;;1987774;71;21089;-76
2021/04/19 12:09:06;;;;;;;16.07;8.43;;;10.60;99.90;;;;;;1987870;72;21147;-76
2021/04/19 12:11:32;;;;;;;14.73;8.05;;;10.50;99.90;;;;;;1987934;71;21089;-75
2021/04/19 12:14:01;;;;;;;16.02;8.35;;;10.70;99.90;;;;;;1987769;72;21045;-75
2021/04/19 12:16:28;;;;;;;16.48;8.38;;;10.70;99.90;;;;;;1987719;72;21077;-75
2021/04/19 12:18:54;;;;;;;15.13;7.72;;;10.90;99.90;;;;;;1987947;72;21062;-75
2021/04/19 12:21:20;;;;;;;17.35;8.08;;;10.60;99.90;;;;;;1987746;72;21073;-75
2021/04/19 12:23:46;;;;;;;15.65;8.85;;;10.50;99.90;;;;;;1988056;72;21041;-75
2021/04/19 12:26:13;;;;;;;17.27;8.25;;;10.70;99.90;;;;;;1987753;72;21088;-75
2021/04/19 12:28:39;;;;;;;18.12;8.05;;;10.80;99.90;;;;;;1987959;72;21066;-75
2021/04/19 12:31:06;;;;;;;23.70;8.53;;;10.50;99.90;;;;;;1987705;72;21126;-75
2021/04/19 12:33:33;;;;;;;13.85;7.35;;;10.50;99.90;;;;;;1987956;72;21166;-75
2021/04/19 12:35:59;;;;;;;18.62;8.50;;;10.50;99.90;;;;;;1987714;71;21070;-75
2021/04/19 12:38:25;;;;;;;15.13;7.33;;;10.60;99.90;;;;;;1987887;72;21473;-75